createdAt,value
2019-01-16T00:02:58.880Z,3.93
2019-01-16T00:06:16.747Z,3.97
2019-01-16T00:09:41.150Z,5.40
2019-01-16T00:13:07.637Z,3.43
2019-01-16T00:16:30.051Z,3.87
2019-01-16T00:19:52.343Z,4.07
2019-01-16T00:23:14.494Z,5.40
2019-01-16T00:26:33.760Z,4.33
2019-01-16T00:29:53.102Z,4.60
2019-01-16T00:33:10.723Z,3.93
2019-01-16T00:36:48.571Z,5.33
2019-01-16T00:40:06.534Z,3.73
2019-01-16T00:43:24.451Z,3.83
2019-01-16T00:46:38.186Z,5.23
2019-01-16T00:50:03.246Z,3.40
2019-01-16T00:53:21.384Z,5.13
2019-01-16T00:56:52.614Z,3.67
2019-01-16T01:00:14.626Z,4.53
2019-01-16T01:03:34.072Z,4.30
2019-01-16T01:07:11.943Z,4.10
2019-01-16T01:10:34.743Z,4.57
2019-01-16T01:14:10.530Z,4.20
2019-01-16T01:17:36.087Z,4.07
2019-01-16T01:21:02.546Z,4.47
2019-01-16T01:24:21.830Z,4.70
2019-01-16T01:27:37.384Z,4.00
2019-01-16T01:31:02.798Z,4.13
2019-01-16T01:34:16.178Z,3.97
2019-01-16T01:37:33.999Z,3.87
2019-01-16T01:41:11.499Z,4.67
2019-01-16T01:44:30.583Z,7.50
2019-01-16T01:48:05.232Z,3.90
2019-01-16T01:51:30.561Z,4.53
2019-01-16T01:55:04.724Z,3.03
2019-01-16T01:58:24.115Z,3.90
2019-01-16T02:01:44.641Z,5.23
2019-01-16T02:05:02.462Z,2.87
2019-01-16T02:08:27.850Z,3.40
2019-01-16T02:11:47.402Z,4.30
2019-01-16T02:15:05.478Z,4.83
2019-01-16T02:18:34.624Z,5.27
2019-01-16T02:21:54.913Z,3.50
2019-01-16T02:25:14.420Z,5.83
2019-01-16T02:28:25.954Z,5.60
2019-01-16T02:31:43.813Z,3.80
2019-01-16T02:34:55.855Z,3.53
2019-01-16T02:38:24.544Z,3.20
2019-01-16T02:41:49.707Z,4.00
2019-01-16T02:45:18.248Z,7.30
2019-01-16T02:48:27.978Z,4.97
2019-01-16T02:51:47.589Z,3.43
2019-01-16T02:55:05.565Z,4.30
2019-01-16T02:58:31.664Z,4.00
2019-01-16T03:01:42.393Z,4.63
2019-01-16T03:05:00.482Z,4.50
2019-01-16T03:08:14.352Z,3.37
2019-01-16T03:11:48.743Z,3.93
2019-01-16T03:15:06.690Z,3.40
2019-01-16T03:18:34.946Z,3.77
2019-01-16T03:21:59.070Z,3.33
2019-01-16T03:25:18.595Z,2.80
2019-01-16T03:28:52.820Z,3.93
2019-01-16T03:32:12.148Z,3.50
2019-01-16T03:35:43.324Z,6.27
2019-01-16T03:39:01.387Z,3.37
2019-01-16T03:42:16.223Z,5.23
2019-01-16T03:45:38.220Z,6.13
2019-01-16T03:48:53.810Z,4.67
2019-01-16T03:52:13.233Z,5.00
2019-01-16T03:55:39.001Z,3.23
2019-01-16T03:59:13.859Z,3.13
2019-01-16T04:02:39.381Z,3.60
2019-01-16T04:05:58.490Z,7.03
2019-01-16T04:09:17.403Z,4.63
2019-01-16T04:12:42.625Z,3.60
2019-01-16T04:16:07.727Z,4.57
2019-01-16T04:19:29.723Z,3.63
2019-01-16T04:22:47.464Z,3.27
2019-01-16T04:26:12.944Z,4.07
2019-01-16T04:29:32.277Z,3.50
2019-01-16T04:32:51.532Z,5.07
2019-01-16T04:36:11.301Z,4.23
2019-01-16T04:39:43.042Z,5.37
2019-01-16T04:42:58.253Z,3.30
2019-01-16T04:46:21.010Z,3.40
2019-01-16T04:49:40.182Z,3.17
2019-01-16T04:53:17.811Z,4.17
2019-01-16T04:56:49.611Z,4.37
2019-01-16T05:00:07.843Z,3.67
2019-01-16T05:03:24.715Z,3.93
2019-01-16T05:06:43.026Z,4.00
2019-01-16T05:09:55.270Z,3.07
2019-01-16T05:13:13.607Z,5.50
2019-01-16T05:16:33.219Z,3.50
2019-01-16T05:20:04.404Z,3.33
2019-01-16T05:23:12.102Z,4.03
2019-01-16T05:26:37.487Z,5.67
2019-01-16T05:29:59.722Z,5.60
2019-01-16T05:33:19.237Z,3.60
2019-01-16T05:36:37.069Z,3.93
2019-01-16T05:39:56.354Z,4.17
2019-01-16T05:43:14.208Z,3.50
2019-01-16T05:46:48.584Z,3.40
2019-01-16T05:50:23.277Z,3.47
2019-01-16T05:53:51.735Z,4.30
2019-01-16T05:57:13.959Z,3.63
2019-01-16T06:00:30.535Z,3.23
2019-01-16T06:03:47.964Z,3.67
2019-01-16T06:07:05.805Z,3.43
2019-01-16T06:10:37.776Z,4.83
2019-01-16T06:14:00.174Z,3.63
2019-01-16T06:17:18.107Z,4.73
2019-01-16T06:20:43.655Z,3.50
2019-01-16T06:24:09.090Z,3.93
2019-01-16T06:27:27.477Z,4.00
2019-01-16T06:30:44.123Z,4.63
2019-01-16T06:34:03.450Z,4.17
2019-01-16T06:37:28.759Z,3.37
2019-01-16T06:40:46.822Z,3.90
2019-01-16T06:44:05.249Z,3.57
2019-01-16T06:47:30.974Z,4.77
2019-01-16T06:50:43.151Z,4.80
2019-01-16T06:54:08.303Z,4.27
2019-01-16T06:57:28.985Z,4.80
2019-01-16T07:00:48.242Z,3.57
2019-01-16T07:04:08.579Z,4.40
2019-01-16T07:07:31.637Z,3.77
2019-01-16T07:10:51.084Z,3.67
2019-01-16T07:14:08.662Z,4.10
2019-01-16T07:17:26.829Z,3.60
2019-01-16T07:20:46.053Z,3.63
2019-01-16T07:24:17.669Z,3.37
2019-01-16T07:27:35.659Z,4.27
2019-01-16T07:30:56.086Z,4.97
2019-01-16T07:34:15.587Z,4.33
2019-01-16T07:37:36.001Z,5.23
2019-01-16T07:40:54.129Z,3.43
2019-01-16T07:44:27.630Z,3.80
2019-01-16T07:47:38.775Z,4.13
2019-01-16T07:51:15.228Z,3.83
2019-01-16T07:54:29.273Z,4.47
2019-01-16T07:58:04.159Z,4.37
2019-01-16T08:01:29.881Z,5.60
2019-01-16T08:04:52.565Z,6.37
2019-01-16T08:08:06.632Z,4.73
2019-01-16T08:11:26.099Z,5.73
2019-01-16T08:14:57.709Z,4.67
2019-01-16T08:18:23.474Z,3.40
2019-01-16T08:21:57.990Z,3.70
2019-01-16T08:25:04.964Z,3.47
2019-01-16T08:28:29.569Z,4.53
2019-01-16T08:31:49.038Z,4.53
2019-01-16T08:35:13.421Z,3.97
2019-01-16T08:38:31.612Z,2.73
2019-01-16T08:41:59.328Z,3.67
2019-01-16T08:45:27.973Z,4.20
2019-01-16T08:48:48.948Z,3.63
2019-01-16T08:51:59.914Z,4.10
2019-01-16T08:55:20.366Z,4.07
2019-01-16T08:58:39.328Z,4.53
2019-01-16T09:02:07.982Z,3.50
2019-01-16T09:05:40.121Z,4.73
2019-01-16T09:09:05.853Z,3.60
2019-01-16T09:12:23.320Z,3.37
2019-01-16T09:15:48.975Z,3.73
2019-01-16T09:19:15.533Z,3.57
2019-01-16T09:22:28.752Z,3.67
2019-01-16T09:25:47.071Z,3.60
2019-01-16T09:29:15.506Z,4.47
2019-01-16T09:32:33.377Z,3.60
2019-01-16T09:35:51.734Z,4.57
2019-01-16T09:39:09.562Z,3.60
2019-01-16T09:42:28.148Z,4.27
2019-01-16T09:45:53.127Z,3.67
2019-01-16T09:49:16.080Z,4.33
2019-01-16T09:52:50.766Z,3.57
2019-01-16T09:56:09.198Z,5.27
2019-01-16T09:59:36.728Z,3.80
2019-01-16T10:02:54.645Z,3.97
2019-01-16T10:06:16.735Z,4.07
2019-01-16T10:09:56.722Z,3.53
2019-01-16T10:13:05.453Z,3.77
2019-01-16T10:16:24.745Z,4.00
2019-01-16T10:19:42.921Z,3.60
2019-01-16T10:23:01.334Z,3.60
2019-01-16T10:26:19.603Z,3.03
2019-01-16T10:29:40.586Z,3.57
2019-01-16T10:33:18.610Z,3.90
2019-01-16T10:36:53.291Z,4.17
2019-01-16T10:40:12.162Z,7.03
2019-01-16T10:43:24.603Z,9.40
2019-01-16T10:47:02.539Z,13.10
2019-01-16T10:50:37.142Z,11.00
2019-01-16T10:53:45.578Z,8.23
2019-01-16T10:57:08.755Z,8.93
2019-01-16T11:00:37.184Z,8.40
2019-01-16T11:03:55.430Z,7.40
2019-01-16T11:07:13.915Z,8.13
2019-01-16T11:10:26.905Z,8.07
2019-01-16T11:13:49.541Z,7.27
2019-01-16T11:17:10.749Z,7.50
2019-01-16T11:20:29.472Z,6.13
2019-01-16T11:23:57.986Z,6.23
2019-01-16T11:27:20.900Z,5.45
2019-01-16T11:30:47.609Z,5.50
2019-01-16T11:34:07.130Z,6.00
2019-01-16T11:37:32.498Z,6.95
2019-01-16T11:40:50.854Z,4.13
2019-01-16T11:44:13.212Z,7.78
2019-01-16T11:47:40.599Z,5.33
2019-01-16T11:51:00.035Z,8.33
2019-01-16T11:54:38.704Z,5.47
2019-01-16T11:58:16.968Z,7.60
2019-01-16T12:01:39.200Z,4.22
2019-01-16T12:05:08.639Z,5.58
2019-01-16T12:08:35.786Z,4.83
2019-01-16T12:11:58.683Z,5.40
2019-01-16T12:15:33.374Z,5.90
2019-01-16T12:18:56.003Z,4.00
2019-01-16T12:22:18.361Z,3.72
2019-01-16T12:25:38.056Z,3.42
2019-01-16T12:28:56.005Z,3.47
2019-01-16T12:32:09.116Z,4.05
2019-01-16T12:35:43.690Z,4.15
2019-01-16T12:39:01.584Z,4.75
2019-01-16T12:42:22.458Z,5.45
2019-01-16T12:45:54.155Z,4.35
2019-01-16T12:49:10.769Z,5.33
2019-01-16T12:52:22.257Z,4.47
2019-01-16T12:55:44.633Z,3.83
2019-01-16T12:59:12.902Z,3.70
2019-01-16T13:02:38.014Z,7.45
2019-01-16T13:05:48.972Z,3.92
2019-01-16T13:09:23.441Z,3.90
2019-01-16T13:12:57.749Z,4.90
2019-01-16T13:16:17.371Z,3.98
2019-01-16T13:19:28.692Z,4.53
2019-01-16T13:22:46.957Z,11.22
2019-01-16T13:26:04.909Z,11.83
2019-01-16T13:29:42.244Z,8.35
2019-01-16T13:33:03.297Z,9.70
2019-01-16T13:36:28.798Z,10.08
2019-01-16T13:39:46.094Z,10.00
2019-01-16T13:43:01.790Z,12.82
2019-01-16T13:46:33.687Z,11.70
2019-01-16T13:49:56.073Z,13.20
2019-01-16T13:53:17.480Z,11.45
2019-01-16T13:56:39.302Z,11.55
2019-01-16T14:00:00.607Z,12.50
2019-01-16T14:03:15.076Z,11.05
2019-01-16T14:06:32.715Z,10.93
2019-01-16T14:09:58.446Z,10.93
2019-01-16T14:13:29.954Z,11.05
2019-01-16T14:16:58.342Z,16.73
2019-01-16T14:20:16.690Z,10.98
2019-01-16T14:23:51.324Z,12.70
2019-01-16T14:27:04.159Z,9.45
2019-01-16T14:30:14.249Z,9.00
2019-01-16T14:33:33.700Z,8.95
2019-01-16T14:36:49.114Z,9.08
2019-01-16T14:40:07.106Z,8.08
2019-01-16T14:43:29.549Z,9.13
2019-01-16T14:46:47.786Z,9.45
2019-01-16T14:50:12.126Z,9.28
2019-01-16T14:53:30.389Z,7.47
2019-01-16T14:56:42.397Z,8.35
2019-01-16T15:00:07.183Z,7.87
2019-01-16T15:03:18.829Z,7.08
2019-01-16T15:06:42.241Z,9.28
2019-01-16T15:09:53.370Z,7.33
2019-01-16T15:13:12.869Z,6.97
2019-01-16T15:16:49.820Z,6.28
2019-01-16T15:20:19.278Z,6.95
2019-01-16T15:23:40.003Z,7.80
2019-01-16T15:27:01.797Z,7.45
2019-01-16T15:30:23.729Z,5.45
2019-01-16T15:33:46.183Z,7.28
2019-01-16T15:36:59.180Z,5.58
2019-01-16T15:40:27.506Z,6.65
2019-01-16T15:43:46.002Z,7.70
2019-01-16T15:47:14.112Z,5.60
2019-01-16T15:50:34.107Z,6.00
2019-01-16T15:53:53.343Z,8.43
2019-01-16T15:57:01.874Z,7.35
2019-01-16T16:00:19.769Z,6.72
2019-01-16T16:07:00.858Z,7.20
2019-01-16T16:10:20.345Z,7.00
2019-01-16T16:13:34.650Z,7.47
2019-01-16T16:16:57.446Z,5.45
2019-01-16T16:20:21.467Z,5.85
2019-01-16T16:23:47.378Z,6.55
2019-01-16T16:27:23.254Z,6.90
2019-01-16T16:34:33.382Z,7.28
2019-01-16T16:37:52.262Z,7.30
2019-01-16T16:41:12.301Z,5.65
2019-01-16T16:44:27.166Z,7.58
2019-01-16T16:47:48.161Z,7.33
2019-01-16T16:51:06.440Z,6.95
2019-01-16T16:54:25.155Z,5.22
2019-01-16T16:58:00.189Z,7.22
2019-01-16T17:01:25.577Z,5.28
2019-01-16T17:04:46.966Z,5.35
2019-01-16T17:07:58.530Z,8.80
2019-01-16T17:11:36.776Z,5.72
2019-01-16T17:15:01.758Z,6.03
2019-01-16T17:18:30.941Z,4.50
2019-01-16T17:21:48.097Z,4.40
2019-01-16T17:25:10.702Z,4.97
2019-01-16T17:28:43.302Z,5.47
2019-01-16T17:32:02.018Z,6.22
2019-01-16T17:35:16.192Z,7.22
2019-01-16T17:38:51.232Z,4.53
2019-01-16T17:42:05.906Z,6.37
2019-01-16T17:45:35.526Z,6.40
2019-01-16T17:49:07.220Z,5.33
2019-01-16T17:52:38.882Z,4.33
2019-01-16T17:55:53.819Z,4.80
2019-01-16T17:59:19.553Z,7.35
2019-01-16T18:02:31.919Z,6.20
2019-01-16T18:05:51.509Z,7.30
2019-01-16T18:09:14.596Z,6.87
2019-01-16T18:12:52.250Z,7.08
2019-01-16T18:16:02.352Z,6.53
2019-01-16T18:19:24.913Z,6.23
2019-01-16T18:23:04.471Z,5.27
2019-01-16T18:26:25.479Z,5.78
2019-01-16T18:29:57.021Z,6.72
2019-01-16T18:33:10.610Z,7.63
2019-01-16T18:36:42.329Z,6.25
2019-01-16T18:39:53.268Z,7.80
2019-01-16T18:43:12.953Z,6.10
2019-01-16T18:46:31.423Z,7.05
2019-01-16T18:49:55.172Z,7.60
2019-01-16T18:53:19.877Z,7.03
2019-01-16T18:56:37.956Z,6.42
2019-01-16T18:59:57.550Z,6.22
2019-01-16T19:03:36.508Z,7.20
2019-01-16T19:07:07.326Z,9.10
2019-01-16T19:10:30.566Z,6.17
2019-01-16T19:13:43.794Z,7.67
2019-01-16T19:17:08.187Z,8.90
2019-01-16T19:20:39.140Z,7.53
2019-01-16T19:24:05.785Z,7.47
2019-01-16T19:27:30.210Z,6.57
2019-01-16T19:30:54.492Z,7.77
2019-01-16T19:34:12.471Z,6.87
2019-01-16T19:37:37.678Z,7.37
2019-01-16T19:40:55.912Z,8.53
2019-01-16T19:44:15.453Z,6.97
2019-01-16T19:47:43.812Z,6.90
2019-01-16T19:51:03.419Z,7.10
2019-01-16T19:54:33.746Z,7.57
2019-01-16T19:57:48.255Z,8.87
2019-01-16T20:01:06.605Z,8.40
2019-01-16T20:04:35.235Z,5.97
2019-01-16T20:07:54.770Z,6.23
2019-01-16T20:11:32.641Z,7.27
2019-01-16T20:15:10.245Z,6.97
2019-01-16T20:18:28.393Z,8.53
2019-01-16T20:21:36.600Z,7.77
2019-01-16T20:25:14.252Z,8.67
2019-01-16T20:28:39.775Z,5.97
2019-01-16T20:31:59.191Z,7.60
2019-01-16T20:35:27.377Z,6.63
2019-01-16T20:38:53.694Z,7.30
2019-01-16T20:42:22.676Z,8.07
2019-01-16T20:45:50.923Z,9.70
2019-01-16T20:49:21.236Z,8.90
2019-01-16T20:52:40.699Z,7.47
2019-01-16T20:56:04.848Z,7.13
2019-01-16T20:59:39.117Z,7.33
2019-01-16T21:03:02.531Z,7.03
2019-01-16T21:06:31.135Z,5.93
2019-01-16T21:09:54.073Z,6.70
2019-01-16T21:13:16.939Z,7.63
2019-01-16T21:16:32.255Z,7.17
2019-01-16T21:19:54.673Z,6.37
2019-01-16T21:23:05.331Z,7.30
2019-01-16T21:26:27.420Z,7.57
2019-01-16T21:30:04.712Z,5.90
2019-01-16T21:33:22.742Z,6.90
2019-01-16T21:36:47.974Z,7.23
2019-01-16T21:40:19.569Z,6.10
2019-01-16T21:43:48.107Z,7.57
2019-01-16T21:47:07.508Z,7.37
2019-01-16T21:50:30.039Z,8.37
2019-01-16T21:53:46.500Z,7.43
2019-01-16T21:57:14.942Z,6.23
2019-01-16T22:00:35.250Z,7.80
2019-01-16T22:04:03.791Z,8.20
2019-01-16T22:07:23.698Z,7.13
2019-01-16T22:10:49.008Z,7.10
2019-01-16T22:14:09.978Z,7.13
2019-01-16T22:17:28.250Z,8.23
2019-01-16T22:20:53.791Z,6.70
2019-01-16T22:24:19.352Z,7.03
2019-01-16T22:27:41.410Z,8.07
2019-01-16T22:31:03.444Z,6.77
2019-01-16T22:34:17.415Z,6.90
2019-01-16T22:37:36.812Z,7.13
2019-01-16T22:40:51.063Z,10.77
2019-01-16T22:43:59.171Z,8.23
2019-01-16T22:47:30.467Z,7.27
2019-01-16T22:50:49.702Z,6.80
2019-01-16T22:54:24.269Z,7.17
2019-01-16T22:57:39.795Z,7.67
2019-01-16T23:01:10.095Z,8.07
2019-01-16T23:04:30.034Z,7.80
2019-01-16T23:08:04.892Z,7.83
2019-01-16T23:11:23.516Z,6.93
2019-01-16T23:14:53.190Z,7.50
2019-01-16T23:18:06.460Z,6.23
2019-01-16T23:21:24.407Z,6.53
2019-01-16T23:24:43.814Z,6.97
2019-01-16T23:28:12.145Z,7.30
2019-01-16T23:31:30.197Z,6.33
2019-01-16T23:34:48.345Z,11.17
2019-01-16T23:38:08.462Z,6.63
2019-01-16T23:41:26.449Z,6.73
2019-01-16T23:44:44.978Z,7.17
2019-01-16T23:48:02.852Z,8.43
2019-01-16T23:51:31.965Z,8.67
2019-01-16T23:54:42.567Z,7.20
2019-01-16T23:58:04.595Z,8.57
